KSLE/SLE METAR and TAF weather

Enter ICAO airport designator
Station Type Date Time Source
KSLE METAR 2020/04/06 16:56 UTC NOAA

KSLE 061656Z 21006KT 10SM OVC011 09/07 A2991 RMK AO2 SLP128 T00940067


Station Type Date Time Source
KSLE Decoded METAR 2020/04/06 16:56 UTC NOAA

SALEM MCNARY FIELD, OR, United States (KSLE) 44-54N 123-00W 59M
Apr 06, 2020 - 12:56 PM EDT / 2020.04.06 1656 UTC
Wind: from the SSW (210 degrees) at 7 MPH (6 KT):0
Visibility: 10 mile(s):0
Sky conditions: overcast
Temperature: 48.9 F (9.4 C)
Dew Point: 44.1 F (6.7 C)
Relative Humidity: 83%
Pressure (altimeter): 29.91 in. Hg (1012 hPa)
ob: KSLE 061656Z 21006KT 10SM OVC011 09/07 A2991 RMK AO2 SLP128 T00940067
cycle: 17

Station Type Date Time Source
KSLE TAF 2020/04/06 18:30 UTC NOAA

TAF KSLE 061728Z 0618/0718 18005KT P6SM BKN023 OVC060
FM062100 VRB04KT P6SM SCT040 BKN250
FM071000 VRB03KT P6SM SCT020 BKN030
FM071400 VRB04KT P6SM OVC025

Example: see airport list